Time;durP1;ratioP1;P1;durP2;ratioP2;P2;SDS_P1;SDS_P2;PMS_P1;PMS_P2;Temp;Humidity;BMP_temperature;BMP_pressure;BME280_temperature;BME280_humidity;BME280_pressure;Samples;Min_cycle;Max_cycle;Signal;HPM_P1;HPM_P2
2022/07/20 00:01:33;;;;;;;4.85;4.03;;;;;;;19.57;100.00;99955.70;1627165;87;21037;-66
2022/07/20 00:04:00;;;;;;;5.87;4.15;;;;;;;19.50;100.00;99958.39;1627863;87;21128;-74
2022/07/20 00:06:26;;;;;;;5.80;4.08;;;;;;;19.48;100.00;99959.34;1628385;87;21089;-69
2022/07/20 00:11:39;;;;;;;5.08;4.08;;;;;;;19.39;100.00;99965.16;1627419;87;21104;-72
2022/07/20 00:14:07;;;;;;;8.23;3.77;;;;;;;19.32;100.00;99965.83;1626969;87;21109;-71
2022/07/20 00:16:34;;;;;;;4.60;3.52;;;;;;;19.29;100.00;99959.01;1627464;87;21109;-71
2022/07/20 00:19:06;;;;;;;4.70;3.42;;;;;;;19.28;100.00;99955.16;1626347;87;21034;-71
2022/07/20 00:21:32;;;;;;;6.47;4.28;;;;;;;19.26;100.00;99953.35;1627419;87;21069;-69
2022/07/20 00:23:59;;;;;;;5.90;3.67;;;;;;;19.21;100.00;99955.83;1630102;87;21169;-74
2022/07/20 00:26:25;;;;;;;8.23;4.55;;;;;;;19.21;100.00;99959.44;1624787;86;21046;-74
2022/07/20 00:28:52;;;;;;;6.87;4.12;;;;;;;19.17;100.00;99952.99;1624514;86;21054;-72
2022/07/20 00:31:19;;;;;;;5.35;4.30;;;;;;;19.17;100.00;99958.58;1626175;87;21085;-71
2022/07/20 00:33:48;;;;;;;5.50;3.87;;;;;;;19.18;100.00;99955.17;1626873;87;21037;-69
2022/07/20 00:36:16;;;;;;;6.35;4.40;;;;;;;19.16;100.00;99945.77;1637180;87;21574;-72
2022/07/20 00:38:44;;;;;;;6.80;4.35;;;;;;;19.16;100.00;99947.75;1643408;87;21045;-70
2022/07/20 00:41:11;;;;;;;7.60;3.80;;;;;;;19.13;100.00;99945.12;1644075;87;21028;-72
2022/07/20 00:44:02;;;;;;;8.30;4.78;;;;;;;19.10;100.00;99952.81;1644099;87;21115;-71
2022/07/20 00:46:32;;;;;;;7.28;5.08;;;;;;;19.07;100.00;99944.56;1632085;87;21040;-71
2022/07/20 00:49:00;;;;;;;7.10;4.78;;;;;;;19.12;100.00;99946.31;1631236;87;21269;-72
2022/07/20 00:51:27;;;;;;;7.08;4.58;;;;;;;19.18;100.00;99939.23;1632748;87;21095;-71
2022/07/20 00:53:54;;;;;;;10.28;4.45;;;;;;;19.12;100.00;99942.12;1640264;87;21036;-71
2022/07/20 00:56:21;;;;;;;7.08;4.22;;;;;;;19.20;100.00;99938.86;1642484;87;21043;-73
2022/07/20 00:58:47;;;;;;;5.28;4.30;;;;;;;19.22;100.00;99942.10;1643779;87;21094;-70
2022/07/20 01:01:14;;;;;;;9.90;5.35;;;;;;;19.25;100.00;99945.55;1631265;87;21126;-70
2022/07/20 01:03:41;;;;;;;8.40;4.10;;;;;;;19.24;100.00;99940.34;1632477;87;21580;-69
2022/07/20 01:06:08;;;;;;;8.98;4.20;;;;;;;19.26;100.00;99943.58;1628781;87;21733;-73
2022/07/20 01:08:35;;;;;;;9.98;4.78;;;;;;;19.27;100.00;99949.37;1633079;87;21147;-71
2022/07/20 01:11:05;;;;;;;6.35;3.35;;;;;;;19.32;100.00;99951.86;1631364;87;21067;-72
2022/07/20 01:13:32;;;;;;;7.55;4.22;;;;;;;19.40;100.00;99943.83;1639351;87;21126;-72
2022/07/20 01:16:00;;;;;;;6.53;3.98;;;;;;;19.48;100.00;99938.39;1631859;87;21099;-74
2022/07/20 01:18:27;;;;;;;5.95;3.85;;;;;;;19.29;100.00;99940.03;1628877;87;21099;-72
2022/07/20 01:21:04;;;;;;;6.22;3.30;;;;;;;19.26;100.00;99938.77;1644181;87;21067;-71
2022/07/20 01:23:31;;;;;;;4.92;4.12;;;;;;;19.26;100.00;99933.80;1643654;87;21088;-70
2022/07/20 01:25:59;;;;;;;8.20;4.78;;;;;;;19.14;100.00;99941.14;1643934;87;21267;-74
2022/07/20 01:28:27;;;;;;;7.22;4.90;;;;;;;19.15;100.00;99942.77;1644324;87;21400;-71
2022/07/20 01:30:54;;;;;;;7.03;5.12;;;;;;;19.14;100.00;99945.94;1640992;87;21083;-66
2022/07/20 01:33:21;;;;;;;6.37;5.17;;;;;;;19.14;100.00;99941.75;1636603;85;21051;-70
2022/07/20 01:35:47;;;;;;;7.28;5.03;;;;;;;19.17;100.00;99948.80;1631747;86;21494;-74
2022/07/20 01:38:14;;;;;;;6.20;3.92;;;;;;;19.20;100.00;99955.05;1630483;86;21206;-69
2022/07/20 01:40:40;;;;;;;7.87;5.22;;;;;;;19.34;100.00;99955.10;1630507;86;22396;-69
2022/07/20 01:43:09;;;;;;;7.22;4.53;;;;;;;19.29;100.00;99948.41;1629858;86;21784;-70
2022/07/20 01:45:35;;;;;;;8.13;5.00;;;;;;;19.29;100.00;99948.41;1630122;86;20998;-71
2022/07/20 01:48:02;;;;;;;8.10;6.15;;;;;;;19.32;100.00;99951.28;1629843;86;21075;-73
2022/07/20 01:50:29;;;;;;;7.87;5.95;;;;;;;19.34;100.00;99954.48;1629417;86;21095;-73
2022/07/20 01:52:56;;;;;;;10.78;7.15;;;;;;;19.40;100.00;99950.81;1630579;86;21097;-70
2022/07/20 01:55:25;;;;;;;15.58;6.55;;;;;;;19.42;100.00;99950.44;1629578;86;21114;-71
2022/07/20 01:57:53;;;;;;;10.08;6.50;;;;;;;19.45;100.00;99947.72;1629663;86;21122;-67
2022/07/20 02:00:20;;;;;;;8.18;6.03;;;;;;;19.46;100.00;99946.53;1600554;88;21073;-75
2022/07/20 02:02:53;;;;;;;8.03;5.85;;;;;;;19.49;100.00;99945.00;1595509;83;21076;-73
2022/07/20 02:05:19;;;;;;;8.93;5.85;;;;;;;19.53;100.00;99963.23;1609238;87;22313;-72
2022/07/20 02:07:46;;;;;;;8.80;5.62;;;;;;;19.53;100.00;99952.84;1605048;88;21074;-71
2022/07/20 02:10:15;;;;;;;7.17;5.25;;;;;;;19.52;100.00;99963.81;1612915;87;21048;-73
2022/07/20 02:12:42;;;;;;;8.50;5.17;;;;;;;19.55;100.00;99957.47;1610896;87;21137;-73
2022/07/20 02:15:11;;;;;;;10.43;5.05;;;;;;;19.53;100.00;99952.05;1608393;87;22515;-73
2022/07/20 02:17:39;;;;;;;8.75;6.05;;;;;;;19.52;100.00;99957.41;1611248;87;21598;-74
2022/07/20 02:20:08;;;;;;;8.60;5.22;;;;;;;19.53;100.00;99957.64;1608253;87;21111;-72
2022/07/20 02:22:35;;;;;;;7.10;4.90;;;;;;;19.54;100.00;99956.45;1605325;87;21707;-74
2022/07/20 02:25:03;;;;;;;13.62;5.58;;;;;;;19.55;100.00;99963.67;1600370;88;21092;-71
2022/07/20 02:27:31;;;;;;;6.62;4.20;;;;;;;19.57;100.00;99961.29;1641533;86;21903;-72
2022/07/20 02:29:57;;;;;;;5.97;4.12;;;;;;;19.58;100.00;99961.53;1644040;86;21520;-73
2022/07/20 02:32:24;;;;;;;8.65;4.22;;;;;;;19.54;100.00;99957.84;1642041;86;21075;-69
2022/07/20 02:34:50;;;;;;;7.97;3.92;;;;;;;19.51;100.00;99961.39;1641814;86;21579;-67
2022/07/20 02:37:17;;;;;;;10.10;4.60;;;;;;;19.52;100.00;99963.81;1643673;86;22420;-71
2022/07/20 02:39:44;;;;;;;4.95;3.55;;;;;;;19.53;100.00;99972.39;1643022;86;21262;-69
2022/07/20 02:42:10;;;;;;;5.97;3.90;;;;;;;19.46;100.00;99971.67;1643822;86;21056;-72
2022/07/20 02:44:37;;;;;;;4.37;3.75;;;;;;;19.50;100.00;99970.96;1642389;86;21444;-69
2022/07/20 02:47:05;;;;;;;4.03;3.37;;;;;;;19.51;100.00;99971.16;1643782;86;21107;-66
2022/07/20 02:49:33;;;;;;;4.05;3.62;;;;;;;19.52;100.00;99975.56;1643239;86;21056;-73
2022/07/20 02:52:00;;;;;;;3.40;3.10;;;;;;;19.51;100.00;99973.96;1643385;86;21181;-70
2022/07/20 02:54:26;;;;;;;3.92;3.10;;;;;;;19.48;100.00;99975.52;1642115;86;21099;-69
2022/07/20 02:56:53;;;;;;;4.55;3.00;;;;;;;19.45;100.00;99964.48;1641513;86;21135;-70
2022/07/20 02:59:20;;;;;;;5.17;2.70;;;;;;;19.47;100.00;99966.91;1644068;86;21084;-70
2022/07/20 03:01:47;;;;;;;4.03;3.00;;;;;;;19.46;100.00;99974.47;1638928;86;21286;-72
2022/07/20 03:04:13;;;;;;;3.83;2.67;;;;;;;19.46;100.00;99977.27;1633409;86;22491;-71
2022/07/20 03:06:40;;;;;;;2.45;2.25;;;;;;;19.45;100.00;99971.47;1632271;86;21561;-70
2022/07/20 03:09:06;;;;;;;3.85;3.37;;;;;;;19.45;100.00;99977.64;1634278;86;21102;-71
2022/07/20 03:11:35;;;;;;;3.22;2.85;;;;;;;19.46;100.00;99975.08;1627659;85;21714;-73
2022/07/20 03:14:01;;;;;;;3.27;2.90;;;;;;;19.46;100.00;99963.30;1631581;86;22272;-66
2022/07/20 03:16:28;;;;;;;4.83;2.83;;;;;;;19.48;100.00;99963.53;1632236;86;21179;-72
2022/07/20 03:18:55;;;;;;;4.12;2.67;;;;;;;19.50;100.00;99963.97;1630516;86;21133;-69
2022/07/20 03:21:22;;;;;;;3.75;3.27;;;;;;;19.52;100.00;99975.56;1631543;86;21135;-69
2022/07/20 03:23:48;;;;;;;2.87;2.58;;;;;;;19.52;100.00;99972.19;1631949;86;21107;-73
2022/07/20 03:26:15;;;;;;;2.98;2.55;;;;;;;19.53;100.00;99977.98;1631190;86;21049;-68
2022/07/20 03:28:42;;;;;;;4.92;3.20;;;;;;;19.52;100.00;99979.17;1632298;86;21793;-68
2022/07/20 03:31:09;;;;;;;3.87;3.12;;;;;;;19.52;100.00;99983.36;1632976;86;21580;-72
2022/07/20 03:33:35;;;;;;;6.12;3.20;;;;;;;19.55;100.00;99982.62;1632024;86;21090;-67
2022/07/20 03:36:03;;;;;;;4.10;3.40;;;;;;;19.64;100.00;99988.56;1629370;86;21259;-69
2022/07/20 03:38:31;;;;;;;5.72;3.45;;;;;;;19.65;100.00;99988.19;1633815;86;21121;-70
2022/07/20 03:40:57;;;;;;;7.97;4.37;;;;;;;19.68;100.00;99977.69;1631282;86;21737;-68
2022/07/20 03:43:25;;;;;;;5.10;3.60;;;;;;;19.72;100.00;99974.92;1631878;86;21050;-72
2022/07/20 03:45:52;;;;;;;3.67;3.15;;;;;;;19.76;100.00;99978.61;1632537;86;22408;-66
2022/07/20 03:48:20;;;;;;;3.80;3.30;;;;;;;19.80;100.00;99983.69;1631503;86;21155;-67
2022/07/20 03:50:48;;;;;;;3.45;3.15;;;;;;;19.85;100.00;99976.16;1631856;86;20969;-69
2022/07/20 03:53:14;;;;;;;3.90;2.75;;;;;;;19.89;100.00;99976.42;1630330;86;21763;-71
2022/07/20 03:55:43;;;;;;;4.28;3.40;;;;;;;19.92;100.00;99978.50;1633171;86;21098;-65
2022/07/20 03:58:09;;;;;;;3.80;3.42;;;;;;;19.99;100.00;99970.00;1632495;86;21167;-69
2022/07/20 04:00:36;;;;;;;4.53;3.35;;;;;;;20.03;100.00;99968.06;1612667;86;21110;-65
2022/07/20 04:03:02;;;;;;;9.15;3.55;;;;;;;20.06;100.00;99965.97;1638794;86;21060;-64
2022/07/20 04:05:29;;;;;;;3.80;3.27;;;;;;;20.09;100.00;99960.20;1639916;86;21098;-68
2022/07/20 04:07:57;;;;;;;5.47;3.17;;;;;;;20.14;100.00;99964.08;1640262;85;21064;-71
2022/07/20 04:10:24;;;;;;;7.90;3.40;;;;;;;20.16;100.00;99963.12;1636200;85;21083;-66
2022/07/20 04:12:50;;;;;;;6.33;3.10;;;;;;;20.24;100.00;99962.05;1640445;85;21075;-69
2022/07/20 04:15:16;;;;;;;4.33;3.25;;;;;;;20.28;100.00;99960.70;1639461;85;21575;-68
2022/07/20 04:17:43;;;;;;;5.22;3.70;;;;;;;20.31;100.00;99959.36;1637480;85;21242;-66
2022/07/20 04:20:12;;;;;;;4.17;3.15;;;;;;;20.36;100.00;99959.62;1638689;85;21531;-67
2022/07/20 04:22:47;;;;;;;3.45;2.95;;;;;;;20.40;100.00;99956.89;1635414;85;21128;-64
2022/07/20 04:25:10;;;;;;;4.65;3.10;;;;;;;20.39;100.00;99953.86;1631505;85;21078;-73
2022/07/20 04:27:36;;;;;;;3.87;3.10;;;;;;;20.46;100.00;99948.95;1631233;87;21063;-70
2022/07/20 04:30:09;;;;;;;4.47;3.10;;;;;;;20.53;100.00;99953.27;1632137;85;21223;-66
2022/07/20 04:32:37;;;;;;;3.75;3.10;;;;;;;20.54;100.00;99945.07;1638110;85;21064;-68
2022/07/20 04:35:05;;;;;;;6.35;3.37;;;;;;;20.61;100.00;99939.58;1638244;85;21052;-67
2022/07/20 04:37:33;;;;;;;8.15;3.55;;;;;;;20.65;100.00;99943.83;1635282;85;21059;-71
2022/07/20 04:40:03;;;;;;;4.05;3.12;;;;;;;20.67;100.00;99934.47;1659762;83;21113;-70
2022/07/20 04:42:31;;;;;;;4.70;3.30;;;;;;;20.72;100.00;99929.12;1657405;85;22288;-71
2022/07/20 04:44:58;;;;;;;4.30;3.33;;;;;;;20.79;100.00;99925.84;1655404;85;21032;-67
2022/07/20 04:47:24;;;;;;;5.53;3.10;;;;;;;20.85;100.00;99929.09;1670097;85;21547;-75
2022/07/20 04:49:52;;;;;;;3.77;2.70;;;;;;;20.88;100.00;99928.32;1670671;85;21035;-73
2022/07/20 04:52:19;;;;;;;4.62;3.77;;;;;;;20.91;100.00;99927.55;1669877;85;21102;-66
2022/07/20 04:54:46;;;;;;;8.65;3.62;;;;;;;20.99;100.00;99923.48;1652244;84;21139;-72
2022/07/20 04:57:12;;;;;;;5.40;2.87;;;;;;;21.07;100.00;99925.17;1617085;86;21084;-69
2022/07/20 04:59:39;;;;;;;4.65;3.67;;;;;;;21.12;100.00;99927.63;1625589;86;21134;-73
2022/07/20 05:02:05;;;;;;;3.50;2.83;;;;;;;21.19;100.00;99921.91;1626779;87;21093;-71
2022/07/20 05:04:32;;;;;;;5.78;3.27;;;;;;;21.30;100.00;99919.21;1622350;87;21039;-72
2022/07/20 05:07:02;;;;;;;4.67;3.05;;;;;;;21.38;100.00;99914.70;1633111;87;21607;-74
2022/07/20 05:09:29;;;;;;;9.80;4.58;;;;;;;21.45;100.00;99913.16;1667183;84;21077;-66
2022/07/20 05:11:55;;;;;;;5.08;3.85;;;;;;;21.39;100.00;99911.31;1645944;84;21073;-68
2022/07/20 05:14:22;;;;;;;7.45;3.60;;;;;;;21.43;100.00;99907.15;1668146;84;21065;-73
2022/07/20 05:16:50;;;;;;;5.33;3.83;;;;;;;21.50;100.00;99905.21;1663007;84;21082;-71
2022/07/20 05:19:19;;;;;;;5.80;3.85;;;;;;;21.56;100.00;99898.66;1662883;85;21123;-72
2022/07/20 05:21:47;;;;;;;10.15;4.62;;;;;;;21.60;100.00;99898.08;1648214;85;21066;-74
2022/07/20 05:24:13;;;;;;;6.70;3.80;;;;;;;21.65;100.00;99906.73;1661603;84;21491;-70
2022/07/20 05:26:40;;;;;;;6.72;3.40;;;;;;;21.70;100.00;99892.97;1663946;84;21575;-67
2022/07/20 05:29:06;;;;;;;7.80;3.50;;;;;;;21.76;100.00;99888.61;1663800;85;21035;-71
2022/07/20 05:31:34;;;;;;;4.20;3.35;;;;;;;21.80;100.00;99888.08;1669988;85;21230;-65
2022/07/20 05:34:02;;;;;;;9.55;3.52;;;;;;;21.83;100.00;99891.50;1650069;85;21056;-73
2022/07/20 05:36:29;;;;;;;4.42;3.12;;;;;;;21.91;100.00;99883.12;1670839;85;21598;-75
2022/07/20 05:38:58;;;;;;;3.50;2.98;;;;;;;21.96;100.00;99884.98;1670445;84;21055;-69
2022/07/20 05:41:25;;;;;;;4.22;3.47;;;;;;;22.00;100.00;99868.18;1668986;84;21071;-71
2022/07/20 05:43:54;;;;;;;8.03;3.27;;;;;;;22.08;100.00;99866.21;1669844;85;22096;-67
2022/07/20 05:46:20;;;;;;;4.97;3.15;;;;;;;22.12;100.00;99865.65;1629284;86;21055;-66
2022/07/20 05:48:47;;;;;;;6.12;2.98;;;;;;;22.17;100.00;99868.09;1663146;85;21130;-71
2022/07/20 05:51:17;;;;;;;3.87;3.40;;;;;;;22.22;100.00;99862.70;1664482;85;21046;-70
2022/07/20 05:53:44;;;;;;;5.37;2.65;;;;;;;22.28;100.00;99859.72;1666554;85;21067;-71
2022/07/20 05:56:11;;;;;;;3.80;2.33;;;;;;;22.33;100.00;99857.94;1632348;87;21159;-73
2022/07/20 05:58:39;;;;;;;6.08;2.65;;;;;;;22.45;100.00;99858.81;1631199;86;21108;-72
2022/07/20 06:01:06;;;;;;;4.75;2.70;;;;;;;22.57;100.00;99860.47;1654346;84;21602;-74
2022/07/20 06:03:33;;;;;;;5.28;3.12;;;;;;;22.63;100.00;99857.51;1643339;85;21057;-69
2022/07/20 06:05:59;;;;;;;3.02;2.50;;;;;;;22.76;100.00;99850.14;1667483;85;21043;-73
2022/07/20 06:08:26;;;;;;;4.37;2.83;;;;;;;22.82;100.00;99847.95;1665822;84;21530;-69
2022/07/20 06:10:52;;;;;;;6.67;2.72;;;;;;;22.90;100.00;99847.95;1642807;85;20988;-73
2022/07/20 06:13:20;;;;;;;5.08;3.02;;;;;;;22.88;100.00;99841.33;1676956;84;21057;-65
2022/07/20 06:15:48;;;;;;;6.92;3.00;;;;;;;22.97;100.00;99836.74;1670504;84;21090;-66
2022/07/20 06:18:17;;;;;;;4.37;2.55;;;;;;;23.06;100.00;99827.94;1666498;85;21539;-72
2022/07/20 06:20:45;;;;;;;2.87;2.55;;;;;;;23.04;100.00;99833.14;1622625;86;21089;-69
2022/07/20 06:23:12;;;;;;;3.37;2.30;;;;;;;23.17;100.00;99821.72;1626689;87;21460;-70
2022/07/20 06:25:38;;;;;;;3.98;2.37;;;;;;;23.23;100.00;99822.92;1628593;87;21520;-76
2022/07/20 06:28:05;;;;;;;6.58;2.83;;;;;;;23.30;100.00;99822.12;1627314;86;21120;-73
2022/07/20 06:30:32;;;;;;;3.80;2.58;;;;;;;23.41;100.00;99816.55;1630755;88;21165;-72
2022/07/20 06:32:59;;;;;;;4.10;2.50;;;;;;;23.48;100.00;99810.12;1645401;86;21231;-74
2022/07/20 06:35:25;;;;;;;4.28;2.87;;;;;;;23.51;100.00;99819.77;1658361;86;21086;-74
2022/07/20 06:37:53;;;;;;;5.95;2.50;;;;;;;23.57;100.00;99820.37;1631239;88;21512;-70
2022/07/20 06:40:21;;;;;;;6.12;3.10;;;;;;;23.65;100.00;99807.69;1638783;86;21036;-72
2022/07/20 06:42:47;;;;;;;3.65;3.05;;;;;;;23.73;100.00;99810.69;1643798;87;21036;-75
2022/07/20 06:45:14;;;;;;;4.40;3.00;;;;;;;23.74;100.00;99808.09;1640645;85;21271;-70
2022/07/20 06:47:42;;;;;;;4.83;2.90;;;;;;;23.80;100.00;99798.62;1618849;87;21044;-72
2022/07/20 06:50:09;;;;;;;7.65;3.35;;;;;;;23.85;100.00;99793.21;1645490;85;21069;-69
2022/07/20 06:52:35;;;;;;;9.60;3.50;;;;;;;23.86;100.00;99791.99;1636470;85;21044;-72
2022/07/20 06:55:02;;;;;;;9.60;3.02;;;;;;;23.89;100.00;99793.39;1641852;87;21024;-70
2022/07/20 06:57:29;;;;;;;4.25;2.98;;;;;;;23.95;100.00;99788.95;1638686;84;21567;-74
2022/07/20 06:59:56;;;;;;;9.20;3.27;;;;;;;24.01;100.00;99785.13;1635413;85;21033;-68
2022/07/20 07:02:25;;;;;;;6.05;3.47;;;;;;;24.11;100.00;99784.08;1633084;87;21295;-75
2022/07/20 07:04:52;;;;;;;6.62;3.62;;;;;;;24.14;100.00;99782.66;1643510;87;21112;-73
2022/07/20 07:07:21;;;;;;;3.75;3.30;;;;;;;24.21;100.00;99782.48;1639385;85;21069;-67
2022/07/20 07:09:47;;;;;;;4.20;3.20;;;;;;;24.28;100.00;99779.62;1620635;87;21147;-71
2022/07/20 07:12:13;;;;;;;4.70;3.47;;;;;;;24.34;100.00;99778.59;1617507;87;21148;-69
2022/07/20 07:14:40;;;;;;;7.45;3.47;;;;;;;24.43;100.00;99772.72;1625909;86;21067;-71
2022/07/20 07:17:08;;;;;;;4.87;3.05;;;;;;;24.55;100.00;99769.23;1641747;85;21082;-74
2022/07/20 07:19:36;;;;;;;6.50;3.05;;;;;;;24.62;100.00;99764.97;1652373;85;21566;-74
2022/07/20 07:22:05;;;;;;;7.00;3.27;;;;;;;24.75;100.00;99754.65;1643456;85;21594;-72
2022/07/20 07:24:32;;;;;;;5.35;3.08;;;;;;;24.75;100.00;99752.64;1642851;85;21168;-75
2022/07/20 07:27:00;;;;;;;5.92;3.40;;;;;;;24.79;100.00;99749.77;1655916;85;21115;-71
2022/07/20 07:29:26;;;;;;;5.28;3.37;;;;;;;24.92;100.00;99743.09;1643770;86;21072;-73
2022/07/20 07:31:58;;;;;;;5.72;3.87;;;;;;;24.99;100.00;99738.78;1648037;86;21123;-74
2022/07/20 07:34:22;;;;;;;3.85;3.50;;;;;;;25.05;100.00;99733.52;1648269;86;21149;-73
2022/07/20 07:36:48;;;;;;;7.40;3.98;;;;;;;25.06;100.00;99728.69;1648452;87;21033;-72
2022/07/20 07:39:14;;;;;;;8.98;4.35;;;;;;;25.12;100.00;99722.80;1652311;85;21015;-68
2022/07/20 07:41:41;;;;;;;6.22;3.62;;;;;;;25.16;100.00;99722.95;1641364;86;21047;-70
2022/07/20 07:44:09;;;;;;;7.17;3.47;;;;;;;25.28;100.00;99718.81;1703172;83;21063;-75
2022/07/20 07:46:36;;;;;;;7.08;3.60;;;;;;;25.35;100.00;99716.53;1704043;84;21049;-73
2022/07/20 07:49:04;;;;;;;6.05;4.33;;;;;;;25.40;100.00;99710.44;1663429;84;21057;-79
2022/07/20 07:51:30;;;;;;;7.90;3.60;;;;;;;25.43;100.00;99710.23;1663882;85;21035;-73
2022/07/20 07:53:57;;;;;;;5.80;3.67;;;;;;;25.34;100.00;99697.22;1664040;86;21521;-78
2022/07/20 07:56:24;;;;;;;5.97;3.80;;;;;;;25.38;100.00;99686.12;1664027;86;21103;-71
2022/07/20 07:58:51;;;;;;;5.42;3.45;;;;;;;25.36;100.00;99689.96;1666263;84;21143;-70
2022/07/20 08:01:18;;;;;;;4.55;3.45;;;;;;;25.31;100.00;99686.19;1663633;86;21021;-72
2022/07/20 08:03:46;;;;;;;7.10;3.67;;;;;;;25.26;100.00;99688.05;1651977;85;21100;-73
2022/07/20 08:06:14;;;;;;;8.00;3.47;;;;;;;25.26;100.00;99689.45;1636873;85;21186;-70
2022/07/20 08:08:42;;;;;;;6.37;3.77;;;;;;;25.30;100.00;99689.42;1642898;84;21072;-75
2022/07/20 08:11:09;;;;;;;4.20;3.37;;;;;;;25.29;100.00;99692.84;1663778;84;21148;-66
2022/07/20 08:13:37;;;;;;;11.95;3.85;;;;;;;25.37;100.00;99684.50;1661737;86;22049;-77
2022/07/20 08:16:04;;;;;;;4.50;3.83;;;;;;;25.36;100.00;99687.14;1662153;86;21076;-72
2022/07/20 08:18:31;;;;;;;6.60;3.60;;;;;;;25.41;100.00;99677.42;1660949;84;21102;-71
2022/07/20 08:21:00;;;;;;;11.60;4.00;;;;;;;25.48;100.00;99675.94;1634590;87;21097;-76
2022/07/20 08:23:27;;;;;;;9.13;3.77;;;;;;;25.56;100.00;99669.59;1662789;86;21224;-69
2022/07/20 08:25:54;;;;;;;5.28;4.10;;;;;;;25.61;100.00;99669.14;1663960;86;21048;-69
2022/07/20 08:28:22;;;;;;;5.75;4.05;;;;;;;25.75;100.00;99665.38;1664088;86;21095;-71
2022/07/20 08:30:52;;;;;;;6.95;5.03;;;;;;;25.87;100.00;99658.98;1660320;86;21020;-74
2022/07/20 08:33:18;;;;;;;5.78;4.33;;;;;;;25.95;100.00;99651.25;1632576;87;21009;-74
2022/07/20 08:35:45;;;;;;;4.62;4.08;;;;;;;26.01;100.00;99648.13;1664308;86;21587;-72
2022/07/20 08:38:11;;;;;;;9.68;3.62;;;;;;;26.10;100.00;99646.98;1663962;86;21040;-71
2022/07/20 08:40:38;;;;;;;9.43;4.08;;;;;;;26.18;100.00;99645.48;1659111;85;21053;-72
2022/07/20 08:43:06;;;;;;;6.45;3.72;;;;;;;26.32;100.00;99640.23;1654575;85;21105;-73
2022/07/20 08:45:34;;;;;;;7.62;3.92;;;;;;;26.44;100.00;99636.05;1644229;87;21525;-75
2022/07/20 08:48:03;;;;;;;5.95;4.08;;;;;;;26.58;100.00;99628.75;1623861;87;21549;-71
2022/07/20 08:50:32;;;;;;;6.33;3.77;;;;;;;26.73;100.00;99612.99;1644489;87;21096;-69
2022/07/20 08:52:59;;;;;;;5.62;3.90;;;;;;;26.85;100.00;99612.36;1644535;85;21036;-73
2022/07/20 08:55:28;;;;;;;6.05;3.67;;;;;;;26.95;100.00;99611.20;1643932;86;21071;-71
2022/07/20 08:57:55;;;;;;;6.95;3.52;;;;;;;27.05;100.00;99605.19;1643982;85;21611;-71
2022/07/20 09:00:22;;;;;;;7.83;3.35;;;;;;;27.12;100.00;99603.64;1644353;87;21185;-68
2022/07/20 09:02:59;;;;;;;12.37;3.60;;;;;;;27.08;100.00;99600.08;1644544;86;21151;-74
2022/07/20 09:05:26;;;;;;;11.70;3.30;;;;;;;27.05;100.00;99591.86;1652024;86;21084;-71
2022/07/20 09:07:57;;;;;;;4.87;3.80;;;;;;;26.96;100.00;99590.98;1643929;86;21081;-71
2022/07/20 09:10:36;;;;;;;8.23;3.75;;;;;;;26.94;100.00;99583.54;1644261;87;21080;-73
2022/07/20 09:13:13;;;;;;;7.37;3.65;;;;;;;26.98;100.00;99580.05;1642512;87;21288;-72
2022/07/20 09:15:54;;;;;;;7.97;4.60;;;;;;;27.00;100.00;99561.24;1644345;87;21091;-72
2022/07/20 09:18:29;;;;;;;7.25;3.77;;;;;;;27.08;100.00;99557.67;1644579;86;21081;-75
2022/07/20 09:21:05;;;;;;;6.75;3.65;;;;;;;27.16;100.00;99555.52;1617627;87;21131;-76
2022/07/20 09:23:35;;;;;;;9.83;3.67;;;;;;;27.28;100.00;99544.95;1644462;87;21056;-75
2022/07/20 09:26:07;;;;;;;6.47;4.00;;;;;;;27.36;100.00;99545.63;1644575;87;21142;-70
2022/07/20 09:28:42;;;;;;;6.90;3.08;;;;;;;27.36;100.00;99553.30;1644680;87;21068;-75
2022/07/20 09:31:14;;;;;;;7.05;3.47;;;;;;;27.48;100.00;99556.09;1644545;87;21048;-72
2022/07/20 09:34:03;;;;;;;4.90;3.27;;;;;;;27.63;100.00;99548.89;1644725;87;21091;-72
2022/07/20 09:36:34;;;;;;;5.53;3.25;;;;;;;27.72;100.00;99553.98;1653582;85;21103;-72
2022/07/20 09:39:12;;;;;;;8.00;3.58;;;;;;;27.68;100.00;99538.47;1644230;87;21297;-71
2022/07/20 09:41:43;;;;;;;8.00;3.65;;;;;;;27.52;100.00;99541.27;1642350;85;21108;-70
2022/07/20 09:44:12;;;;;;;7.12;3.08;;;;;;;27.49;100.00;99524.53;1643681;87;21053;-69
2022/07/20 09:46:39;;;;;;;5.85;3.87;;;;;;;27.64;100.00;99520.77;1640075;87;21013;-70
2022/07/20 09:49:10;;;;;;;28.80;5.37;;;;;;;27.66;100.00;99521.73;1643488;87;21099;-73
2022/07/20 09:51:47;;;;;;;4.08;3.40;;;;;;;27.69;100.00;99504.72;1642323;87;21604;-69
2022/07/20 09:54:17;;;;;;;9.63;4.40;;;;;;;27.70;100.00;99502.08;1639850;85;21033;-73
2022/07/20 09:56:47;;;;;;;7.03;3.65;;;;;;;27.77;100.00;99491.83;1643508;87;21044;-70
2022/07/20 09:59:14;;;;;;;10.35;3.70;;;;;;;27.81;100.00;99493.33;1643268;87;21580;-71
2022/07/20 10:01:51;;;;;;;5.22;3.80;;;;;;;27.87;100.00;99490.78;1643928;87;21024;-73
2022/07/20 10:04:18;;;;;;;8.05;4.00;;;;;;;27.92;100.00;99481.77;1639565;87;21858;-74
2022/07/20 10:06:47;;;;;;;10.80;3.87;;;;;;;27.99;100.00;99471.49;1640098;87;21073;-70
2022/07/20 10:09:15;;;;;;;6.67;3.62;;;;;;;28.10;100.00;99468.41;1635669;86;21130;-72
2022/07/20 10:11:44;;;;;;;5.22;3.83;;;;;;;28.14;100.00;99457.16;1643484;87;20993;-73
2022/07/20 10:14:11;;;;;;;7.92;3.58;;;;;;;28.22;100.00;99455.56;1643701;87;21103;-72
2022/07/20 10:16:54;;;;;;;6.67;3.72;;;;;;;28.30;100.00;99452.08;1643477;87;21587;-72
2022/07/20 10:19:41;;;;;;;4.80;3.30;;;;;;;28.39;100.00;99442.98;1638401;85;21596;-72
2022/07/20 10:22:09;;;;;;;3.45;3.08;;;;;;;28.39;100.00;99450.06;1642533;87;21128;-74
2022/07/20 10:24:37;;;;;;;4.78;3.30;;;;;;;28.34;100.00;99446.99;1643618;87;21120;-71
2022/07/20 10:27:26;;;;;;;5.72;3.08;;;;;;;28.33;100.00;99443.94;1644488;85;21056;-75
2022/07/20 10:29:56;;;;;;;10.43;3.95;;;;;;;28.37;100.00;99427.69;1641573;87;21626;-72
2022/07/20 10:32:32;;;;;;;6.60;3.87;;;;;;;28.42;100.00;99427.15;1645756;86;21096;-71
2022/07/20 10:35:00;;;;;;;4.45;3.50;;;;;;;28.40;100.00;99417.69;1643395;84;21067;-76
2022/07/20 10:37:44;;;;;;;6.10;3.47;;;;;;;28.46;100.00;99401.53;1659688;85;21077;-72
2022/07/20 10:40:17;;;;;;;4.95;3.50;;;;;;;28.55;100.00;99393.20;1651996;85;21112;-71
2022/07/20 10:43:14;;;;;;;6.87;3.45;;;;;;;28.59;100.00;99395.93;1626867;85;21176;-72
2022/07/20 10:45:41;;;;;;;4.92;3.12;;;;;;;28.72;100.00;99388.88;1641236;85;22268;-75
2022/07/20 10:48:15;;;;;;;4.75;3.05;;;;;;;28.79;100.00;99382.39;1638563;85;21077;-73
2022/07/20 10:50:51;;;;;;;4.85;3.00;;;;;;;28.85;100.00;99380.42;1638293;85;21016;-74
2022/07/20 10:53:28;;;;;;;6.85;3.47;;;;;;;28.91;100.00;99370.11;1622074;86;21044;-72
2022/07/20 10:55:59;;;;;;;5.30;4.03;;;;;;;28.97;100.00;99367.52;1646305;85;21109;-72
2022/07/20 10:58:35;;;;;;;10.68;3.40;;;;;;;28.91;100.00;99359.57;1644613;85;21133;-71
2022/07/20 11:01:06;;;;;;;5.92;3.60;;;;;;;28.78;100.00;99362.36;1629418;85;21012;-71
2022/07/20 11:03:46;;;;;;;7.50;3.30;;;;;;;28.74;100.00;99364.53;1641455;85;21028;-75
2022/07/20 11:06:21;;;;;;;10.48;3.75;;;;;;;28.69;100.00;99365.08;1643514;87;21599;-74
2022/07/20 11:08:58;;;;;;;8.45;2.87;;;;;;;28.60;100.00;99362.90;1623052;87;21231;-76
2022/07/20 11:11:28;;;;;;;6.85;3.55;;;;;;;28.48;100.00;99356.56;1641781;87;21489;-73
2022/07/20 11:13:57;;;;;;;14.15;3.40;;;;;;;28.41;100.00;99350.48;1640379;85;21560;-69
2022/07/20 11:16:26;;;;;;;6.17;3.22;;;;;;;28.30;100.00;99358.63;1644065;87;21057;-73
2022/07/20 11:18:56;;;;;;;5.62;3.70;;;;;;;28.26;100.00;99338.74;1644142;87;21068;-70
2022/07/20 11:21:44;;;;;;;6.58;3.00;;;;;;;28.31;100.00;99338.20;1644242;87;21675;-74
2022/07/20 11:24:26;;;;;;;6.75;3.08;;;;;;;28.46;100.00;99324.45;1644174;87;21041;-69
2022/07/20 11:26:53;;;;;;;5.12;3.62;;;;;;;28.65;100.00;99317.02;1643198;87;21009;-73
2022/07/20 11:29:20;;;;;;;4.95;3.50;;;;;;;28.78;100.00;99313.41;1644101;87;21024;-75
2022/07/20 11:31:46;;;;;;;5.35;3.65;;;;;;;28.92;100.00;99306.48;1644321;87;21100;-70
2022/07/20 11:34:13;;;;;;;6.30;3.92;;;;;;;29.02;100.00;99303.17;1643968;87;21140;-75